sensor_id;sensor_type;location;lat;lon;timestamp;pressure;altitude;pressure_sealevel;temperature;humidity
25722;BME280;13578;53.450;15.496;2023-06-26T00:00:42;99936.50;;;14.61;100.00
25722;BME280;13578;53.450;15.496;2023-06-26T00:03:43;99936.13;;;14.56;100.00
25722;BME280;13578;53.450;15.496;2023-06-26T00:06:43;99935.03;;;14.49;100.00
25722;BME280;13578;53.450;15.496;2023-06-26T00:09:44;99934.78;;;14.42;100.00
25722;BME280;13578;53.450;15.496;2023-06-26T00:12:44;99936.84;;;14.40;100.00
25722;BME280;13578;53.450;15.496;2023-06-26T00:15:45;99941.81;;;14.37;100.00
25722;BME280;13578;53.450;15.496;2023-06-26T00:18:46;99932.19;;;14.41;100.00
25722;BME280;13578;53.450;15.496;2023-06-26T00:21:46;99932.03;;;14.42;100.00
25722;BME280;13578;53.450;15.496;2023-06-26T00:24:48;99932.50;;;14.38;100.00
25722;BME280;13578;53.450;15.496;2023-06-26T00:27:48;99929.69;;;14.29;100.00
25722;BME280;13578;53.450;15.496;2023-06-26T00:30:49;99930.16;;;14.25;100.00
25722;BME280;13578;53.450;15.496;2023-06-26T00:33:49;99926.22;;;14.27;100.00
25722;BME280;13578;53.450;15.496;2023-06-26T00:36:50;99924.88;;;14.32;100.00
25722;BME280;13578;53.450;15.496;2023-06-26T00:39:50;99922.66;;;14.35;100.00
25722;BME280;13578;53.450;15.496;2023-06-26T00:42:51;99915.56;;;14.33;100.00
25722;BME280;13578;53.450;15.496;2023-06-26T00:45:52;99920.53;;;14.29;100.00
25722;BME280;13578;53.450;15.496;2023-06-26T00:48:54;99918.91;;;14.18;100.00
25722;BME280;13578;53.450;15.496;2023-06-26T00:51:56;99921.28;;;14.13;100.00
25722;BME280;13578;53.450;15.496;2023-06-26T00:54:56;99917.09;;;14.09;100.00
25722;BME280;13578;53.450;15.496;2023-06-26T00:57:58;99908.50;;;14.12;100.00
25722;BME280;13578;53.450;15.496;2023-06-26T01:00:58;99907.13;;;14.16;100.00
25722;BME280;13578;53.450;15.496;2023-06-26T01:04:01;99901.31;;;14.19;100.00
25722;BME280;13578;53.450;15.496;2023-06-26T01:07:03;99903.19;;;14.19;100.00
25722;BME280;13578;53.450;15.496;2023-06-26T01:10:05;99898.47;;;14.11;100.00
25722;BME280;13578;53.450;15.496;2023-06-26T01:13:06;99895.47;;;14.04;100.00
25722;BME280;13578;53.450;15.496;2023-06-26T01:16:08;99895.94;;;14.00;100.00
25722;BME280;13578;53.450;15.496;2023-06-26T01:19:13;99887.53;;;14.01;100.00
25722;BME280;13578;53.450;15.496;2023-06-26T01:22:19;99887.19;;;14.04;100.00
25722;BME280;13578;53.450;15.496;2023-06-26T01:25:37;99883.75;;;14.02;100.00
25722;BME280;13578;53.450;15.496;2023-06-26T01:28:42;99881.59;;;13.96;100.00
25722;BME280;13578;53.450;15.496;2023-06-26T01:31:44;99885.00;;;13.90;100.00
25722;BME280;13578;53.450;15.496;2023-06-26T01:34:48;99879.19;;;13.93;100.00
25722;BME280;13578;53.450;15.496;2023-06-26T01:37:48;99872.78;;;13.92;100.00
25722;BME280;13578;53.450;15.496;2023-06-26T01:40:50;99878.16;;;13.94;100.00
25722;BME280;13578;53.450;15.496;2023-06-26T01:47:12;99878.72;;;13.97;100.00
25722;BME280;13578;53.450;15.496;2023-06-26T01:50:22;99873.66;;;13.93;100.00
25722;BME280;13578;53.450;15.496;2023-06-26T01:53:25;99865.69;;;13.90;100.00
25722;BME280;13578;53.450;15.496;2023-06-26T01:56:30;99861.19;;;13.89;100.00
25722;BME280;13578;53.450;15.496;2023-06-26T01:59:32;99866.16;;;13.85;100.00
25722;BME280;13578;53.450;15.496;2023-06-26T02:02:34;99860.44;;;13.78;100.00
25722;BME280;13578;53.450;15.496;2023-06-26T02:05:35;99861.44;;;13.77;100.00
25722;BME280;13578;53.450;15.496;2023-06-26T02:08:36;99857.50;;;13.80;100.00
25722;BME280;13578;53.450;15.496;2023-06-26T02:11:36;99853.72;;;13.81;100.00
25722;BME280;13578;53.450;15.496;2023-06-26T02:14:37;99858.91;;;13.84;100.00
25722;BME280;13578;53.450;15.496;2023-06-26T02:17:38;99855.84;;;13.87;100.00
25722;BME280;13578;53.450;15.496;2023-06-26T02:20:38;99864.13;;;13.87;100.00
25722;BME280;13578;53.450;15.496;2023-06-26T02:23:40;99865.78;;;13.80;100.00
25722;BME280;13578;53.450;15.496;2023-06-26T02:26:40;99864.50;;;13.74;100.00
25722;BME280;13578;53.450;15.496;2023-06-26T02:29:42;99861.06;;;13.72;100.00
25722;BME280;13578;53.450;15.496;2023-06-26T02:32:42;99859.00;;;13.74;100.00
25722;BME280;13578;53.450;15.496;2023-06-26T02:35:43;99851.44;;;13.76;100.00
25722;BME280;13578;53.450;15.496;2023-06-26T02:38:44;99853.00;;;13.79;100.00
25722;BME280;13578;53.450;15.496;2023-06-26T02:41:44;99853.00;;;13.79;100.00
25722;BME280;13578;53.450;15.496;2023-06-26T02:44:45;99849.69;;;13.75;100.00
25722;BME280;13578;53.450;15.496;2023-06-26T02:47:46;99853.19;;;13.77;100.00
25722;BME280;13578;53.450;15.496;2023-06-26T02:50:47;99847.28;;;13.72;100.00
25722;BME280;13578;53.450;15.496;2023-06-26T02:53:47;99847.97;;;13.74;100.00
25722;BME280;13578;53.450;15.496;2023-06-26T02:56:48;99843.81;;;13.70;100.00
25722;BME280;13578;53.450;15.496;2023-06-26T02:59:49;99845.91;;;13.76;100.00
25722;BME280;13578;53.450;15.496;2023-06-26T03:02:49;99843.34;;;13.75;100.00
25722;BME280;13578;53.450;15.496;2023-06-26T03:05:50;99839.00;;;13.72;100.00
25722;BME280;13578;53.450;15.496;2023-06-26T03:08:50;99836.94;;;13.74;100.00
25722;BME280;13578;53.450;15.496;2023-06-26T03:11:51;99838.03;;;13.81;100.00
25722;BME280;13578;53.450;15.496;2023-06-26T03:14:54;99835.34;;;13.90;100.00
25722;BME280;13578;53.450;15.496;2023-06-26T03:17:55;99836.13;;;14.00;100.00
25722;BME280;13578;53.450;15.496;2023-06-26T03:20:56;99837.13;;;14.17;100.00
25722;BME280;13578;53.450;15.496;2023-06-26T03:23:57;99834.19;;;14.19;100.00
25722;BME280;13578;53.450;15.496;2023-06-26T03:26:58;99837.97;;;14.18;100.00
25722;BME280;13578;53.450;15.496;2023-06-26T03:29:58;99838.78;;;14.10;100.00
25722;BME280;13578;53.450;15.496;2023-06-26T03:32:59;99831.88;;;14.06;100.00
25722;BME280;13578;53.450;15.496;2023-06-26T03:35:59;99831.38;;;14.10;100.00
25722;BME280;13578;53.450;15.496;2023-06-26T03:39:00;99839.41;;;14.22;100.00
25722;BME280;13578;53.450;15.496;2023-06-26T03:42:01;99838.31;;;14.14;100.00
25722;BME280;13578;53.450;15.496;2023-06-26T03:45:02;99831.38;;;14.10;100.00
25722;BME280;13578;53.450;15.496;2023-06-26T03:48:02;99828.00;;;14.17;100.00
25722;BME280;13578;53.450;15.496;2023-06-26T03:51:03;99830.84;;;14.33;100.00
25722;BME280;13578;53.450;15.496;2023-06-26T03:54:04;99826.44;;;15.09;100.00
25722;BME280;13578;53.450;15.496;2023-06-26T03:57:04;99829.56;;;15.91;100.00
25722;BME280;13578;53.450;15.496;2023-06-26T04:00:05;99837.28;;;16.70;100.00
25722;BME280;13578;53.450;15.496;2023-06-26T04:03:08;99839.44;;;17.39;100.00
25722;BME280;13578;53.450;15.496;2023-06-26T04:06:09;99843.16;;;18.09;100.00
25722;BME280;13578;53.450;15.496;2023-06-26T04:09:10;99840.84;;;18.66;100.00
25722;BME280;13578;53.450;15.496;2023-06-26T04:12:10;99841.22;;;19.01;100.00
25722;BME280;13578;53.450;15.496;2023-06-26T04:15:11;99835.22;;;19.34;100.00
25722;BME280;13578;53.450;15.496;2023-06-26T04:18:11;99836.44;;;19.68;100.00
25722;BME280;13578;53.450;15.496;2023-06-26T04:21:13;99828.47;;;20.02;100.00
25722;BME280;13578;53.450;15.496;2023-06-26T04:24:14;99838.75;;;20.23;100.00
25722;BME280;13578;53.450;15.496;2023-06-26T04:27:14;99843.66;;;20.21;100.00
25722;BME280;13578;53.450;15.496;2023-06-26T04:30:15;99845.09;;;20.38;100.00
25722;BME280;13578;53.450;15.496;2023-06-26T04:33:16;99844.84;;;20.61;100.00
25722;BME280;13578;53.450;15.496;2023-06-26T04:36:17;99840.28;;;20.82;100.00
25722;BME280;13578;53.450;15.496;2023-06-26T04:39:18;99834.84;;;21.02;100.00
25722;BME280;13578;53.450;15.496;2023-06-26T04:42:18;99837.25;;;21.12;100.00
25722;BME280;13578;53.450;15.496;2023-06-26T04:45:21;99826.75;;;21.14;100.00
25722;BME280;13578;53.450;15.496;2023-06-26T04:48:22;99821.16;;;21.14;100.00
25722;BME280;13578;53.450;15.496;2023-06-26T04:51:23;99820.38;;;21.27;100.00
25722;BME280;13578;53.450;15.496;2023-06-26T04:54:23;99826.66;;;21.42;100.00
25722;BME280;13578;53.450;15.496;2023-06-26T04:57:24;99816.66;;;21.62;100.00
25722;BME280;13578;53.450;15.496;2023-06-26T05:00:24;99812.81;;;21.69;100.00
25722;BME280;13578;53.450;15.496;2023-06-26T05:03:25;99804.56;;;21.48;100.00
25722;BME280;13578;53.450;15.496;2023-06-26T05:06:26;99801.50;;;21.29;100.00
25722;BME280;13578;53.450;15.496;2023-06-26T05:09:26;99809.66;;;21.37;100.00
25722;BME280;13578;53.450;15.496;2023-06-26T05:12:27;99812.56;;;21.57;100.00
25722;BME280;13578;53.450;15.496;2023-06-26T05:15:27;99804.63;;;21.61;100.00
25722;BME280;13578;53.450;15.496;2023-06-26T05:18:28;99800.00;;;21.33;100.00
25722;BME280;13578;53.450;15.496;2023-06-26T05:21:29;99799.72;;;21.15;100.00
25722;BME280;13578;53.450;15.496;2023-06-26T05:24:30;99805.75;;;21.25;100.00
25722;BME280;13578;53.450;15.496;2023-06-26T05:27:31;99798.88;;;21.21;100.00
25722;BME280;13578;53.450;15.496;2023-06-26T05:30:32;99807.53;;;21.39;100.00
25722;BME280;13578;53.450;15.496;2023-06-26T05:33:35;99796.81;;;21.36;100.00
25722;BME280;13578;53.450;15.496;2023-06-26T05:36:38;99798.56;;;21.51;100.00
25722;BME280;13578;53.450;15.496;2023-06-26T05:39:40;99804.84;;;21.66;100.00
25722;BME280;13578;53.450;15.496;2023-06-26T05:42:44;99808.31;;;21.82;100.00
25722;BME280;13578;53.450;15.496;2023-06-26T05:45:45;99794.38;;;21.88;100.00
25722;BME280;13578;53.450;15.496;2023-06-26T05:48:46;99797.81;;;21.97;100.00
25722;BME280;13578;53.450;15.496;2023-06-26T05:51:47;99790.75;;;22.15;100.00
25722;BME280;13578;53.450;15.496;2023-06-26T05:54:48;99792.25;;;22.17;100.00
25722;BME280;13578;53.450;15.496;2023-06-26T05:57:50;99792.44;;;22.29;100.00
25722;BME280;13578;53.450;15.496;2023-06-26T06:00:51;99794.84;;;22.39;100.00
25722;BME280;13578;53.450;15.496;2023-06-26T06:03:52;99792.03;;;22.59;100.00
25722;BME280;13578;53.450;15.496;2023-06-26T06:06:52;99773.28;;;22.66;100.00
25722;BME280;13578;53.450;15.496;2023-06-26T06:09:53;99771.13;;;22.82;100.00
25722;BME280;13578;53.450;15.496;2023-06-26T06:12:53;99757.53;;;22.86;100.00
25722;BME280;13578;53.450;15.496;2023-06-26T06:15:54;99766.41;;;22.76;100.00
25722;BME280;13578;53.450;15.496;2023-06-26T06:18:56;99765.28;;;22.83;100.00
25722;BME280;13578;53.450;15.496;2023-06-26T06:21:57;99759.03;;;22.81;100.00
25722;BME280;13578;53.450;15.496;2023-06-26T06:24:57;99771.00;;;23.09;100.00
25722;BME280;13578;53.450;15.496;2023-06-26T06:27:58;99766.66;;;23.26;100.00
25722;BME280;13578;53.450;15.496;2023-06-26T06:30:58;99757.63;;;23.24;100.00
25722;BME280;13578;53.450;15.496;2023-06-26T06:33:59;99762.78;;;23.27;100.00
25722;BME280;13578;53.450;15.496;2023-06-26T06:37:03;99772.97;;;23.54;100.00
25722;BME280;13578;53.450;15.496;2023-06-26T06:40:05;99754.94;;;23.75;100.00
25722;BME280;13578;53.450;15.496;2023-06-26T06:43:06;99761.53;;;23.87;100.00
25722;BME280;13578;53.450;15.496;2023-06-26T06:46:07;99757.34;;;23.71;100.00
25722;BME280;13578;53.450;15.496;2023-06-26T06:49:08;99759.03;;;23.79;100.00
25722;BME280;13578;53.450;15.496;2023-06-26T06:52:09;99752.69;;;23.90;100.00
25722;BME280;13578;53.450;15.496;2023-06-26T06:55:10;99746.66;;;23.93;100.00
25722;BME280;13578;53.450;15.496;2023-06-26T06:58:11;99750.09;;;23.95;100.00
25722;BME280;13578;53.450;15.496;2023-06-26T07:01:12;99758.72;;;24.19;100.00
25722;BME280;13578;53.450;15.496;2023-06-26T07:04:13;99751.47;;;24.37;100.00
25722;BME280;13578;53.450;15.496;2023-06-26T07:07:19;99761.31;;;24.65;100.00
25722;BME280;13578;53.450;15.496;2023-06-26T07:10:20;99746.63;;;24.88;100.00
25722;BME280;13578;53.450;15.496;2023-06-26T07:13:20;99738.03;;;25.01;99.97
25722;BME280;13578;53.450;15.496;2023-06-26T07:16:21;99749.66;;;25.05;100.00
25722;BME280;13578;53.450;15.496;2023-06-26T07:19:22;99739.13;;;25.19;100.00
25722;BME280;13578;53.450;15.496;2023-06-26T07:22:23;99737.28;;;25.43;99.18
25722;BME280;13578;53.450;15.496;2023-06-26T07:25:23;99731.22;;;25.46;96.66
25722;BME280;13578;53.450;15.496;2023-06-26T07:28:24;99741.63;;;25.58;97.44
25722;BME280;13578;53.450;15.496;2023-06-26T07:31:25;99722.34;;;25.61;93.44
25722;BME280;13578;53.450;15.496;2023-06-26T07:34:25;99728.50;;;25.82;93.31
25722;BME280;13578;53.450;15.496;2023-06-26T07:37:26;99721.66;;;25.78;89.87
25722;BME280;13578;53.450;15.496;2023-06-26T07:40:29;99711.75;;;25.75;87.96
25722;BME280;13578;53.450;15.496;2023-06-26T07:43:30;99716.34;;;25.58;88.09
25722;BME280;13578;53.450;15.496;2023-06-26T07:46:31;99711.59;;;25.70;88.23
25722;BME280;13578;53.450;15.496;2023-06-26T07:49:32;99706.50;;;25.79;86.11
25722;BME280;13578;53.450;15.496;2023-06-26T07:52:32;99703.06;;;25.77;86.65
25722;BME280;13578;53.450;15.496;2023-06-26T07:55:33;99712.63;;;25.88;89.69
25722;BME280;13578;53.450;15.496;2023-06-26T07:58:34;99710.38;;;25.66;88.64
25722;BME280;13578;53.450;15.496;2023-06-26T08:01:34;99703.91;;;25.65;89.80
25722;BME280;13578;53.450;15.496;2023-06-26T08:04:35;99700.69;;;26.04;90.93
25722;BME280;13578;53.450;15.496;2023-06-26T08:07:36;99708.44;;;26.21;88.35
25722;BME280;13578;53.450;15.496;2023-06-26T08:10:37;99711.22;;;26.44;88.95
25722;BME280;13578;53.450;15.496;2023-06-26T08:13:37;99703.28;;;26.53;89.63
25722;BME280;13578;53.450;15.496;2023-06-26T08:16:42;99693.94;;;26.64;86.92
25722;BME280;13578;53.450;15.496;2023-06-26T08:19:44;99681.97;;;26.81;87.44
25722;BME280;13578;53.450;15.496;2023-06-26T08:22:44;99693.22;;;26.69;87.87
25722;BME280;13578;53.450;15.496;2023-06-26T08:25:46;99676.59;;;26.68;82.24
25722;BME280;13578;53.450;15.496;2023-06-26T08:28:47;99689.59;;;26.33;85.63
25722;BME280;13578;53.450;15.496;2023-06-26T08:31:48;99697.66;;;26.41;89.60
25722;BME280;13578;53.450;15.496;2023-06-26T08:34:48;99695.31;;;26.62;87.19
25722;BME280;13578;53.450;15.496;2023-06-26T08:37:49;99699.31;;;26.90;90.51
25722;BME280;13578;53.450;15.496;2023-06-26T08:40:49;99687.19;;;27.01;86.50
25722;BME280;13578;53.450;15.496;2023-06-26T08:43:50;99687.31;;;27.23;86.98
25722;BME280;13578;53.450;15.496;2023-06-26T08:46:54;99692.78;;;27.42;85.80
25722;BME280;13578;53.450;15.496;2023-06-26T08:52:56;99696.31;;;27.49;85.45
25722;BME280;13578;53.450;15.496;2023-06-26T08:56:00;99688.44;;;27.51;82.26
25722;BME280;13578;53.450;15.496;2023-06-26T08:59:01;99672.81;;;27.44;80.91
25722;BME280;13578;53.450;15.496;2023-06-26T09:02:02;99675.25;;;27.69;79.95
25722;BME280;13578;53.450;15.496;2023-06-26T09:05:03;99677.97;;;27.81;80.81
25722;BME280;13578;53.450;15.496;2023-06-26T09:08:04;99676.47;;;27.90;80.92
25722;BME280;13578;53.450;15.496;2023-06-26T09:11:05;99667.16;;;28.07;79.02
25722;BME280;13578;53.450;15.496;2023-06-26T09:14:06;99668.84;;;27.90;78.40
25722;BME280;13578;53.450;15.496;2023-06-26T09:17:09;99664.44;;;27.20;78.62
25722;BME280;13578;53.450;15.496;2023-06-26T09:20:10;99664.53;;;27.25;79.16
25722;BME280;13578;53.450;15.496;2023-06-26T09:23:10;99661.47;;;27.26;80.66
25722;BME280;13578;53.450;15.496;2023-06-26T09:26:14;99664.13;;;27.33;80.93
25722;BME280;13578;53.450;15.496;2023-06-26T09:29:15;99658.06;;;27.24;79.21
25722;BME280;13578;53.450;15.496;2023-06-26T09:32:16;99655.59;;;26.99;80.70
25722;BME280;13578;53.450;15.496;2023-06-26T09:35:17;99667.00;;;26.92;82.57
25722;BME280;13578;53.450;15.496;2023-06-26T09:38:17;99664.56;;;26.84;83.22
25722;BME280;13578;53.450;15.496;2023-06-26T09:41:18;99656.91;;;26.56;82.41
25722;BME280;13578;53.450;15.496;2023-06-26T09:44:19;99669.63;;;26.46;86.60
25722;BME280;13578;53.450;15.496;2023-06-26T09:47:21;99656.75;;;26.62;86.25
25722;BME280;13578;53.450;15.496;2023-06-26T09:50:23;99654.44;;;26.83;81.47
25722;BME280;13578;53.450;15.496;2023-06-26T09:53:25;99657.69;;;27.21;84.06
25722;BME280;13578;53.450;15.496;2023-06-26T09:56:27;99641.16;;;27.24;79.68
25722;BME280;13578;53.450;15.496;2023-06-26T09:59:28;99647.63;;;27.25;82.00
25722;BME280;13578;53.450;15.496;2023-06-26T10:02:29;99634.50;;;27.31;77.72
25722;BME280;13578;53.450;15.496;2023-06-26T10:05:29;99649.41;;;27.14;82.07
25722;BME280;13578;53.450;15.496;2023-06-26T10:08:30;99641.06;;;27.48;81.05
25722;BME280;13578;53.450;15.496;2023-06-26T10:11:43;99641.41;;;27.86;81.24
25722;BME280;13578;53.450;15.496;2023-06-26T10:14:45;99630.25;;;28.08;77.60
25722;BME280;13578;53.450;15.496;2023-06-26T10:17:48;99621.06;;;27.84;72.86
25722;BME280;13578;53.450;15.496;2023-06-26T10:20:50;99611.69;;;27.61;73.20
25722;BME280;13578;53.450;15.496;2023-06-26T10:23:56;99616.09;;;27.40;75.57
25722;BME280;13578;53.450;15.496;2023-06-26T10:27:00;99625.09;;;27.54;81.01
25722;BME280;13578;53.450;15.496;2023-06-26T10:30:05;99617.56;;;27.77;78.04
25722;BME280;13578;53.450;15.496;2023-06-26T10:33:07;99612.34;;;28.02;78.82
25722;BME280;13578;53.450;15.496;2023-06-26T10:36:16;99601.91;;;28.20;73.92
25722;BME280;13578;53.450;15.496;2023-06-26T10:39:18;99592.22;;;27.94;74.73
25722;BME280;13578;53.450;15.496;2023-06-26T10:42:19;99604.38;;;27.60;75.71
25722;BME280;13578;53.450;15.496;2023-06-26T10:45:22;99604.00;;;27.90;76.28
25722;BME280;13578;53.450;15.496;2023-06-26T10:48:22;99609.34;;;28.26;76.92
25722;BME280;13578;53.450;15.496;2023-06-26T10:51:29;99582.13;;;28.59;71.07
25722;BME280;13578;53.450;15.496;2023-06-26T10:54:31;99575.19;;;28.67;70.55
25722;BME280;13578;53.450;15.496;2023-06-26T10:57:35;99579.91;;;28.00;71.94
25722;BME280;13578;53.450;15.496;2023-06-26T11:00:36;99574.84;;;28.19;71.55
25722;BME280;13578;53.450;15.496;2023-06-26T11:03:41;99575.34;;;28.16;72.39
25722;BME280;13578;53.450;15.496;2023-06-26T11:06:44;99563.81;;;28.00;69.86
25722;BME280;13578;53.450;15.496;2023-06-26T11:10:02;99576.69;;;28.30;74.70
25722;BME280;13578;53.450;15.496;2023-06-26T11:13:08;99563.25;;;28.60;71.82
25722;BME280;13578;53.450;15.496;2023-06-26T11:16:12;99562.72;;;28.85;70.71
25722;BME280;13578;53.450;15.496;2023-06-26T11:19:13;99555.81;;;28.76;69.39
25722;BME280;13578;53.450;15.496;2023-06-26T11:22:15;99555.38;;;28.40;71.76
25722;BME280;13578;53.450;15.496;2023-06-26T11:25:15;99540.94;;;28.36;70.10
25722;BME280;13578;53.450;15.496;2023-06-26T11:28:17;99569.53;;;28.67;73.01
25722;BME280;13578;53.450;15.496;2023-06-26T11:31:28;99536.97;;;28.81;69.06
25722;BME280;13578;53.450;15.496;2023-06-26T11:34:33;99543.47;;;28.82;67.02
25722;BME280;13578;53.450;15.496;2023-06-26T11:37:33;99543.19;;;28.83;67.67
25722;BME280;13578;53.450;15.496;2023-06-26T11:40:35;99544.28;;;29.05;67.68
25722;BME280;13578;53.450;15.496;2023-06-26T11:43:37;99544.06;;;28.84;70.43
25722;BME280;13578;53.450;15.496;2023-06-26T11:46:38;99546.78;;;28.51;70.50
25722;BME280;13578;53.450;15.496;2023-06-26T11:49:42;99535.81;;;28.11;68.90
25722;BME280;13578;53.450;15.496;2023-06-26T11:52:43;99528.59;;;27.81;70.97
25722;BME280;13578;53.450;15.496;2023-06-26T11:55:44;99532.44;;;28.14;71.21
25722;BME280;13578;53.450;15.496;2023-06-26T11:59:08;99535.84;;;28.60;72.09
25722;BME280;13578;53.450;15.496;2023-06-26T12:02:10;99529.56;;;28.75;71.45
25722;BME280;13578;53.450;15.496;2023-06-26T12:05:13;99520.44;;;28.24;71.02
25722;BME280;13578;53.450;15.496;2023-06-26T12:08:14;99516.94;;;28.33;70.29
25722;BME280;13578;53.450;15.496;2023-06-26T12:11:16;99513.50;;;28.31;70.45
25722;BME280;13578;53.450;15.496;2023-06-26T12:14:19;99510.97;;;27.90;68.82
25722;BME280;13578;53.450;15.496;2023-06-26T12:17:22;99506.31;;;27.62;71.40
25722;BME280;13578;53.450;15.496;2023-06-26T12:20:24;99510.44;;;27.54;73.82
25722;BME280;13578;53.450;15.496;2023-06-26T12:23:41;99515.66;;;27.46;76.17
25722;BME280;13578;53.450;15.496;2023-06-26T12:26:43;99506.34;;;27.45;77.43
25722;BME280;13578;53.450;15.496;2023-06-26T12:29:52;99498.88;;;27.56;77.71
25722;BME280;13578;53.450;15.496;2023-06-26T12:32:56;99507.97;;;27.97;80.36
25722;BME280;13578;53.450;15.496;2023-06-26T12:35:56;99495.59;;;28.20;77.56
25722;BME280;13578;53.450;15.496;2023-06-26T12:39:00;99486.91;;;28.49;76.46
25722;BME280;13578;53.450;15.496;2023-06-26T12:42:01;99487.34;;;28.91;75.12
25722;BME280;13578;53.450;15.496;2023-06-26T12:45:11;99472.69;;;28.89;70.74
25722;BME280;13578;53.450;15.496;2023-06-26T12:48:14;99465.94;;;28.67;71.96
25722;BME280;13578;53.450;15.496;2023-06-26T12:51:17;99445.75;;;28.53;71.33
25722;BME280;13578;53.450;15.496;2023-06-26T12:54:17;99445.53;;;28.33;71.44
25722;BME280;13578;53.450;15.496;2023-06-26T12:57:18;99445.19;;;28.51;73.61
25722;BME280;13578;53.450;15.496;2023-06-26T13:00:19;99435.91;;;28.56;72.47
25722;BME280;13578;53.450;15.496;2023-06-26T13:03:20;99425.31;;;28.68;72.51
25722;BME280;13578;53.450;15.496;2023-06-26T13:06:23;99423.22;;;28.86;73.68
25722;BME280;13578;53.450;15.496;2023-06-26T13:09:24;99416.69;;;29.13;70.18
25722;BME280;13578;53.450;15.496;2023-06-26T13:12:25;99400.94;;;29.22;66.68
25722;BME280;13578;53.450;15.496;2023-06-26T13:15:26;99406.19;;;29.46;68.38
25722;BME280;13578;53.450;15.496;2023-06-26T13:18:27;99392.47;;;29.22;67.69
25722;BME280;13578;53.450;15.496;2023-06-26T13:21:28;99398.09;;;28.84;69.80
25722;BME280;13578;53.450;15.496;2023-06-26T13:24:28;99384.75;;;28.75;69.28
25722;BME280;13578;53.450;15.496;2023-06-26T13:27:29;99381.94;;;28.75;72.15
25722;BME280;13578;53.450;15.496;2023-06-26T13:30:30;99380.44;;;28.99;69.89
25722;BME280;13578;53.450;15.496;2023-06-26T13:33:31;99368.50;;;29.30;66.22
25722;BME280;13578;53.450;15.496;2023-06-26T13:36:32;99370.53;;;29.35;65.19
25722;BME280;13578;53.450;15.496;2023-06-26T13:39:36;99356.13;;;29.41;63.80
25722;BME280;13578;53.450;15.496;2023-06-26T13:42:37;99370.06;;;29.53;66.92
25722;BME280;13578;53.450;15.496;2023-06-26T13:45:38;99366.16;;;29.65;64.16
25722;BME280;13578;53.450;15.496;2023-06-26T13:48:38;99353.25;;;29.84;63.21
25722;BME280;13578;53.450;15.496;2023-06-26T13:51:39;99352.78;;;30.08;62.99
25722;BME280;13578;53.450;15.496;2023-06-26T13:54:48;99353.91;;;30.12;61.91
25722;BME280;13578;53.450;15.496;2023-06-26T13:57:52;99348.25;;;30.07;63.55
25722;BME280;13578;53.450;15.496;2023-06-26T14:00:53;99336.34;;;30.05;61.30
25722;BME280;13578;53.450;15.496;2023-06-26T14:03:54;99332.25;;;29.65;62.84
25722;BME280;13578;53.450;15.496;2023-06-26T14:06:54;99323.19;;;29.68;63.66
25722;BME280;13578;53.450;15.496;2023-06-26T14:09:55;99330.28;;;29.70;65.58
25722;BME280;13578;53.450;15.496;2023-06-26T14:12:56;99332.84;;;29.72;65.66
25722;BME280;13578;53.450;15.496;2023-06-26T14:15:56;99325.78;;;29.79;64.37
25722;BME280;13578;53.450;15.496;2023-06-26T14:18:57;99332.19;;;29.49;64.61
25722;BME280;13578;53.450;15.496;2023-06-26T14:22:01;99316.88;;;29.40;66.86
25722;BME280;13578;53.450;15.496;2023-06-26T14:25:02;99322.44;;;29.29;67.26
25722;BME280;13578;53.450;15.496;2023-06-26T14:28:03;99328.13;;;28.92;69.17
25722;BME280;13578;53.450;15.496;2023-06-26T14:31:04;99311.34;;;28.42;69.19
25722;BME280;13578;53.450;15.496;2023-06-26T14:34:05;99322.69;;;28.20;71.04
25722;BME280;13578;53.450;15.496;2023-06-26T14:37:05;99320.94;;;28.14;74.22
25722;BME280;13578;53.450;15.496;2023-06-26T14:40:07;99316.72;;;28.16;75.64
25722;BME280;13578;53.450;15.496;2023-06-26T14:43:08;99321.97;;;28.30;76.84
25722;BME280;13578;53.450;15.496;2023-06-26T14:46:09;99314.44;;;28.41;76.69
25722;BME280;13578;53.450;15.496;2023-06-26T14:49:09;99311.03;;;28.39;75.52
25722;BME280;13578;53.450;15.496;2023-06-26T14:52:10;99307.44;;;28.48;74.67
25722;BME280;13578;53.450;15.496;2023-06-26T14:55:10;99301.97;;;28.36;74.63
25722;BME280;13578;53.450;15.496;2023-06-26T14:58:11;99292.88;;;28.29;76.00
25722;BME280;13578;53.450;15.496;2023-06-26T15:01:11;99291.94;;;28.18;74.78
25722;BME280;13578;53.450;15.496;2023-06-26T15:04:12;99288.47;;;28.11;76.13
25722;BME280;13578;53.450;15.496;2023-06-26T15:07:13;99289.22;;;28.01;77.65
25722;BME280;13578;53.450;15.496;2023-06-26T15:10:13;99283.75;;;27.95;78.56
25722;BME280;13578;53.450;15.496;2023-06-26T15:13:14;99281.22;;;27.93;80.28
25722;BME280;13578;53.450;15.496;2023-06-26T15:16:15;99279.28;;;27.94;83.53
25722;BME280;13578;53.450;15.496;2023-06-26T15:19:15;99268.78;;;27.89;82.27
25722;BME280;13578;53.450;15.496;2023-06-26T15:22:22;99264.22;;;27.83;83.06
25722;BME280;13578;53.450;15.496;2023-06-26T15:25:24;99270.84;;;27.71;84.01
25722;BME280;13578;53.450;15.496;2023-06-26T15:28:24;99279.72;;;27.58;85.25
25722;BME280;13578;53.450;15.496;2023-06-26T15:31:28;99286.59;;;27.45;85.68
25722;BME280;13578;53.450;15.496;2023-06-26T15:34:29;99290.88;;;27.31;88.39
25722;BME280;13578;53.450;15.496;2023-06-26T15:37:30;99291.53;;;27.16;89.75
25722;BME280;13578;53.450;15.496;2023-06-26T15:40:30;99285.25;;;27.08;90.13
25722;BME280;13578;53.450;15.496;2023-06-26T15:43:32;99286.19;;;26.97;92.27
25722;BME280;13578;53.450;15.496;2023-06-26T15:46:33;99286.41;;;26.90;94.53
25722;BME280;13578;53.450;15.496;2023-06-26T15:49:34;99270.19;;;26.81;96.24